createdAt,value
2022-12-11T00:00:44.279Z,34.90
2022-12-11T00:03:16.276Z,34.60
2022-12-11T00:05:46.732Z,34.60
2022-12-11T00:08:15.915Z,34.50
2022-12-11T00:10:50.659Z,34.60
2022-12-11T00:13:19.500Z,34.40
2022-12-11T00:15:48.260Z,34.20
2022-12-11T00:18:18.720Z,33.70
2022-12-11T00:20:47.411Z,33.90
2022-12-11T00:23:16.222Z,33.70
2022-12-11T00:25:46.678Z,33.30
2022-12-11T00:28:18.962Z,32.60
2022-12-11T00:30:48.914Z,32.70
2022-12-11T00:33:19.230Z,32.70
2022-12-11T00:35:50.023Z,33.00
2022-12-11T00:38:22.773Z,32.40
2022-12-11T00:40:51.687Z,32.20
2022-12-11T00:43:20.463Z,32.30
2022-12-11T00:45:50.060Z,32.20
2022-12-11T00:48:20.290Z,32.70
2022-12-11T00:50:49.208Z,33.00
2022-12-11T00:53:18.277Z,32.80
2022-12-11T00:55:47.160Z,32.70
2022-12-11T00:58:16.455Z,32.20
2022-12-11T01:00:45.824Z,32.70
2022-12-11T01:03:17.039Z,32.90
2022-12-11T01:05:55.457Z,32.50
2022-12-11T01:08:24.292Z,32.40
2022-12-11T01:10:52.090Z,32.20
2022-12-11T01:13:20.977Z,32.30
2022-12-11T01:15:49.810Z,32.60
2022-12-11T01:18:18.662Z,32.50
2022-12-11T01:20:47.565Z,32.20
2022-12-11T01:23:18.216Z,31.80
2022-12-11T01:25:47.101Z,32.10
2022-12-11T01:28:16.499Z,31.90
2022-12-11T01:30:45.426Z,32.00
2022-12-11T01:33:14.296Z,32.40
2022-12-11T01:35:43.302Z,32.40
2022-12-11T01:38:12.489Z,32.80
2022-12-11T01:40:54.850Z,32.80
2022-12-11T01:43:27.386Z,33.00
2022-12-11T01:45:56.287Z,33.60
2022-12-11T01:48:30.733Z,33.70
2022-12-11T01:51:03.897Z,34.00
2022-12-11T01:53:39.051Z,34.00
2022-12-11T01:56:11.378Z,34.50
2022-12-11T01:58:48.003Z,34.70
2022-12-11T02:01:33.463Z,35.00
2022-12-11T02:04:03.468Z,35.30
2022-12-11T02:06:36.622Z,35.30
2022-12-11T02:09:09.014Z,34.80
2022-12-11T02:11:54.252Z,34.80
2022-12-11T02:14:38.538Z,33.90
2022-12-11T02:17:16.582Z,33.50
2022-12-11T02:20:05.649Z,33.50
2022-12-11T02:23:16.932Z,33.80
2022-12-11T02:26:05.178Z,33.40
2022-12-11T02:28:40.847Z,32.10
2022-12-11T02:31:15.857Z,31.60
2022-12-11T02:33:53.984Z,31.20
2022-12-11T02:36:27.771Z,31.20
2022-12-11T02:38:59.110Z,31.10
2022-12-11T02:41:31.004Z,30.70
2022-12-11T02:44:04.114Z,30.00
2022-12-11T02:46:35.871Z,29.80
2022-12-11T02:49:09.042Z,29.40
2022-12-11T02:51:42.265Z,29.70
2022-12-11T02:54:20.730Z,29.50
2022-12-11T02:56:55.106Z,29.30
2022-12-11T02:59:31.876Z,28.90
2022-12-11T03:02:00.450Z,28.30
2022-12-11T03:04:30.975Z,27.90
2022-12-11T03:07:12.217Z,27.40
2022-12-11T03:09:41.879Z,27.80
2022-12-11T03:12:14.954Z,28.10
2022-12-11T03:14:46.065Z,28.70
2022-12-11T03:17:20.113Z,29.00
2022-12-11T03:19:57.157Z,29.30
2022-12-11T03:22:38.745Z,29.50
2022-12-11T03:25:16.958Z,29.90
2022-12-11T03:27:57.392Z,29.90
2022-12-11T03:30:32.666Z,29.80
2022-12-11T03:33:10.558Z,29.90
2022-12-11T03:35:43.800Z,30.20
2022-12-11T03:38:19.857Z,30.20
2022-12-11T03:40:54.555Z,30.70
2022-12-11T03:43:25.203Z,31.30
2022-12-11T03:45:56.808Z,32.00
2022-12-11T03:48:31.791Z,31.90
2022-12-11T03:51:03.308Z,32.10
2022-12-11T03:53:33.867Z,31.90
2022-12-11T03:56:05.489Z,32.10
2022-12-11T03:58:34.416Z,32.10
2022-12-11T04:01:04.736Z,31.90
2022-12-11T04:03:33.490Z,32.30
2022-12-11T04:06:02.219Z,32.70
2022-12-11T04:08:30.862Z,32.60
2022-12-11T04:11:13.366Z,33.00
2022-12-11T04:13:43.428Z,33.40
2022-12-11T04:16:12.521Z,33.80
2022-12-11T04:19:10.032Z,33.80
2022-12-11T04:21:56.290Z,34.50
2022-12-11T04:24:24.869Z,34.80
2022-12-11T04:26:53.533Z,34.80
2022-12-11T04:29:22.151Z,34.50
2022-12-11T04:31:52.394Z,34.00
2022-12-11T04:34:20.986Z,34.30
2022-12-11T04:36:49.732Z,34.90
2022-12-11T04:39:18.475Z,35.50
2022-12-11T04:41:47.262Z,36.00
2022-12-11T04:44:15.897Z,36.00
2022-12-11T04:46:45.524Z,36.00
2022-12-11T04:49:16.975Z,36.40
2022-12-11T04:51:45.700Z,36.70
2022-12-11T04:54:14.382Z,36.70
2022-12-11T04:56:43.083Z,36.90
2022-12-11T04:59:11.859Z,37.10
2022-12-11T05:01:40.527Z,36.50
2022-12-11T05:04:09.327Z,36.00
2022-12-11T05:06:39.940Z,35.60
2022-12-11T05:09:12.185Z,35.40
2022-12-11T05:11:41.225Z,35.00
2022-12-11T05:14:10.150Z,34.70
2022-12-11T05:16:38.796Z,34.40
2022-12-11T05:19:07.484Z,34.30
2022-12-11T05:21:36.121Z,34.00
2022-12-11T05:24:07.114Z,34.00
2022-12-11T05:26:35.693Z,33.80
2022-12-11T05:29:04.579Z,33.40
2022-12-11T05:31:33.679Z,33.30
2022-12-11T05:34:02.642Z,33.20
2022-12-11T05:36:34.282Z,32.90
2022-12-11T05:39:06.622Z,32.70
2022-12-11T05:41:35.641Z,32.60
2022-12-11T05:44:04.379Z,32.40
2022-12-11T05:46:33.018Z,32.30
2022-12-11T05:49:03.586Z,32.70
2022-12-11T05:51:34.398Z,32.90
2022-12-11T05:54:03.978Z,32.60
2022-12-11T05:56:36.572Z,32.80
2022-12-11T05:59:07.208Z,32.80
2022-12-11T06:01:39.174Z,32.40
2022-12-11T06:04:10.449Z,32.60
2022-12-11T06:06:40.509Z,32.80
2022-12-11T06:09:09.429Z,33.10
2022-12-11T06:11:39.479Z,33.50
2022-12-11T06:14:08.170Z,33.80
2022-12-11T06:16:36.840Z,33.60
2022-12-11T06:19:05.830Z,33.40
2022-12-11T06:21:35.253Z,33.60
2022-12-11T06:24:05.746Z,34.10
2022-12-11T06:26:34.572Z,34.50
2022-12-11T06:29:08.997Z,34.40
2022-12-11T06:31:39.651Z,34.50
2022-12-11T06:34:08.279Z,34.40
2022-12-11T06:36:36.929Z,34.00
2022-12-11T06:39:05.956Z,33.90
2022-12-11T06:41:34.708Z,33.80
2022-12-11T06:44:05.625Z,33.90
2022-12-11T06:46:34.211Z,33.80
2022-12-11T06:49:02.809Z,33.80
2022-12-11T06:51:31.616Z,33.90
2022-12-11T06:54:00.344Z,33.80
2022-12-11T06:56:28.954Z,33.80
2022-12-11T06:58:58.394Z,34.00
2022-12-11T07:01:31.282Z,33.80
2022-12-11T07:04:01.511Z,33.50
2022-12-11T07:06:31.266Z,33.50
2022-12-11T07:08:59.768Z,33.30
2022-12-11T07:11:28.440Z,33.50
2022-12-11T07:14:00.176Z,33.60
2022-12-11T07:16:30.504Z,34.70
2022-12-11T07:18:59.197Z,35.00
2022-12-11T07:21:28.777Z,35.00
2022-12-11T07:23:57.738Z,35.00
2022-12-11T07:26:27.033Z,34.80
2022-12-11T07:28:59.167Z,34.60
2022-12-11T07:31:31.943Z,35.40
2022-12-11T07:34:04.865Z,35.70
2022-12-11T07:36:34.244Z,35.80
2022-12-11T07:39:15.122Z,35.90
2022-12-11T07:41:44.012Z,36.00
2022-12-11T07:44:12.979Z,35.70
2022-12-11T07:46:43.219Z,35.30
2022-12-11T07:49:11.930Z,35.20
2022-12-11T08:23:04.039Z,34.80
2022-12-11T08:25:32.819Z,34.50
2022-12-11T08:28:01.441Z,34.40
2022-12-11T08:30:30.253Z,34.10
2022-12-11T08:32:59.801Z,34.40
2022-12-11T08:35:28.641Z,34.00
2022-12-11T08:37:57.281Z,32.50
2022-12-11T08:40:27.453Z,32.80
2022-12-11T08:42:56.211Z,31.90
2022-12-11T08:45:24.863Z,31.10
2022-12-11T08:47:54.092Z,30.10
2022-12-11T08:50:23.105Z,29.70
2022-12-11T08:52:51.879Z,28.80
2022-12-11T08:55:20.772Z,29.60
2022-12-11T08:57:50.902Z,29.90
2022-12-11T09:00:19.896Z,30.60
2022-12-11T09:02:49.569Z,30.40
2022-12-11T09:05:18.616Z,30.60
2022-12-11T09:07:47.242Z,31.40
2022-12-11T09:10:15.935Z,31.00
2022-12-11T09:12:44.766Z,30.30
2022-12-11T09:15:14.996Z,30.70
2022-12-11T09:17:43.896Z,31.20
2022-12-11T09:20:13.339Z,31.20
2022-12-11T09:22:42.878Z,28.50
2022-12-11T09:25:12.025Z,27.80
2022-12-11T09:27:40.966Z,28.00
2022-12-11T09:30:10.989Z,28.50
2022-12-11T09:32:41.143Z,28.70
2022-12-11T09:35:11.580Z,28.10
2022-12-11T09:37:40.421Z,27.20
2022-12-11T09:40:14.020Z,26.80
2022-12-11T09:42:54.627Z,23.30
2022-12-11T09:45:23.505Z,20.80
2022-12-11T09:47:57.680Z,19.00
2022-12-11T09:50:29.793Z,18.70
2022-12-11T09:53:13.488Z,19.00
2022-12-11T09:55:56.808Z,19.20
2022-12-11T09:58:41.293Z,19.20
2022-12-11T10:01:18.562Z,18.60
2022-12-11T10:04:32.079Z,20.40
2022-12-11T10:07:13.503Z,21.20
2022-12-11T10:09:52.288Z,22.60
2022-12-11T10:12:38.308Z,24.00
2022-12-11T10:15:35.020Z,25.20
2022-12-11T10:18:07.885Z,26.60
2022-12-11T10:20:41.348Z,26.70
2022-12-11T10:23:18.380Z,27.20
2022-12-11T10:25:52.906Z,26.90
2022-12-11T10:28:23.032Z,28.10
2022-12-11T10:31:04.535Z,27.80
2022-12-11T10:33:42.845Z,28.30
2022-12-11T10:36:21.508Z,28.70
2022-12-11T10:38:50.282Z,29.30
2022-12-11T10:41:24.718Z,29.20
2022-12-11T10:43:55.059Z,28.90
2022-12-11T10:46:28.275Z,29.40
2022-12-11T10:49:00.309Z,29.30
2022-12-11T10:51:38.509Z,28.90
2022-12-11T10:54:17.960Z,29.20
2022-12-11T10:56:51.037Z,28.90
2022-12-11T10:59:30.357Z,28.70
2022-12-11T11:01:59.734Z,26.70
2022-12-11T11:04:34.853Z,26.90
2022-12-11T11:07:13.767Z,26.40
2022-12-11T11:09:43.882Z,26.70
2022-12-11T11:12:26.218Z,26.70
2022-12-11T11:15:03.606Z,26.50
2022-12-11T11:17:36.254Z,26.00
2022-12-11T11:20:18.547Z,25.80
2022-12-11T11:22:52.823Z,26.20
2022-12-11T11:25:28.627Z,25.60
2022-12-11T11:28:01.404Z,25.70
2022-12-11T11:30:35.319Z,25.00
2022-12-11T11:33:12.348Z,26.00
2022-12-11T11:35:45.717Z,26.30
2022-12-11T11:38:21.444Z,26.80
2022-12-11T11:41:04.985Z,27.10
2022-12-11T11:43:44.612Z,26.80
2022-12-11T11:46:19.636Z,27.30
2022-12-11T11:49:00.440Z,27.70
2022-12-11T11:51:37.483Z,26.60
2022-12-11T11:54:23.942Z,26.80
2022-12-11T11:56:57.095Z,26.60
2022-12-11T11:59:32.303Z,27.10
2022-12-11T12:02:00.974Z,26.30
2022-12-11T12:04:36.957Z,26.80
2022-12-11T12:07:29.995Z,27.20
2022-12-11T12:10:15.735Z,26.30
2022-12-11T12:12:53.867Z,26.60
2022-12-11T12:15:35.658Z,26.90
2022-12-11T12:18:17.724Z,26.20
2022-12-11T12:20:56.617Z,26.60
2022-12-11T12:23:44.637Z,26.30
2022-12-11T12:26:26.978Z,27.00
2022-12-11T12:29:15.025Z,27.70
2022-12-11T12:32:10.807Z,27.20
2022-12-11T12:34:58.874Z,27.60
2022-12-11T12:37:49.119Z,26.70
2022-12-11T12:40:31.992Z,26.10
2022-12-11T12:43:33.846Z,25.10
2022-12-11T12:46:16.521Z,25.70
2022-12-11T12:48:46.806Z,25.60
2022-12-11T12:51:17.710Z,25.10
2022-12-11T12:53:53.699Z,25.10
2022-12-11T12:56:23.445Z,24.40
2022-12-11T12:58:53.652Z,22.80
2022-12-11T13:01:26.273Z,21.90
2022-12-11T13:03:59.422Z,22.40
2022-12-11T13:06:39.020Z,22.60
2022-12-11T13:09:20.189Z,23.40
2022-12-11T13:11:54.671Z,26.20
2022-12-11T13:14:31.795Z,26.60
2022-12-11T13:17:36.578Z,27.50
2022-12-11T13:20:18.227Z,27.60
2022-12-11T13:23:20.143Z,28.40
2022-12-11T13:25:55.594Z,28.70
2022-12-11T13:28:47.011Z,28.00
2022-12-11T13:31:40.441Z,26.60
2022-12-11T13:34:22.205Z,26.80
2022-12-11T13:36:53.637Z,25.30
2022-12-11T13:39:27.695Z,24.70
2022-12-11T13:42:01.248Z,25.40
2022-12-11T13:44:38.287Z,24.70
2022-12-11T13:47:15.622Z,23.50
2022-12-11T13:49:49.212Z,23.80
2022-12-11T13:52:21.962Z,23.70
2022-12-11T13:54:53.243Z,24.30
2022-12-11T13:57:25.959Z,25.20
2022-12-11T13:59:59.543Z,25.40
2022-12-11T14:02:35.443Z,25.90
2022-12-11T14:05:09.088Z,25.50
2022-12-11T14:07:42.506Z,25.90
2022-12-11T14:10:19.408Z,25.50
2022-12-11T14:12:55.154Z,25.60
2022-12-11T14:15:24.596Z,25.60
2022-12-11T14:17:56.110Z,25.70
2022-12-11T14:20:29.253Z,25.50
2022-12-11T14:23:07.631Z,25.60
2022-12-11T14:25:36.458Z,25.20
2022-12-11T14:28:05.548Z,26.00
2022-12-11T14:30:48.687Z,26.20
2022-12-11T14:33:23.177Z,26.00
2022-12-11T14:35:55.465Z,27.60
2022-12-11T14:38:30.674Z,27.40
2022-12-11T14:41:08.307Z,28.20
2022-12-11T14:43:44.048Z,28.30
2022-12-11T14:46:25.137Z,29.10
2022-12-11T14:49:03.232Z,29.10
2022-12-11T14:51:37.396Z,29.30
2022-12-11T14:54:08.936Z,29.40
2022-12-11T14:56:37.807Z,29.90
2022-12-11T14:59:19.696Z,30.00
2022-12-11T15:02:00.779Z,29.90
2022-12-11T15:04:34.238Z,30.40
2022-12-11T15:07:03.080Z,31.10
2022-12-11T15:09:40.815Z,32.30
2022-12-11T15:12:14.810Z,32.80
2022-12-11T15:14:51.132Z,33.30
2022-12-11T15:17:22.051Z,33.00
2022-12-11T15:19:55.975Z,33.20
2022-12-11T15:22:34.856Z,33.00
2022-12-11T15:25:04.165Z,32.90
2022-12-11T15:27:37.337Z,32.90
2022-12-11T15:30:28.475Z,32.10
2022-12-11T15:33:22.052Z,31.80
2022-12-11T15:36:03.479Z,31.80
2022-12-11T15:38:39.768Z,31.70
2022-12-11T15:41:16.514Z,32.20
2022-12-11T15:43:46.895Z,32.70
2022-12-11T15:46:16.760Z,32.80
2022-12-11T15:48:45.994Z,32.80
2022-12-11T15:51:16.538Z,33.00
2022-12-11T15:53:45.393Z,33.10
2022-12-11T16:01:01.796Z,33.20
2022-12-11T16:03:38.254Z,33.10
2022-12-11T16:06:18.419Z,33.10
2022-12-11T16:08:47.621Z,33.00
2022-12-11T16:11:19.888Z,33.10
2022-12-11T16:13:55.095Z,33.00
2022-12-11T16:24:54.645Z,33.60
2022-12-11T18:22:44.696Z,31.30
2022-12-11T18:25:14.358Z,31.40
2022-12-11T18:27:43.362Z,31.20
2022-12-11T18:30:14.752Z,31.70
2022-12-11T18:32:44.843Z,31.40
2022-12-11T18:35:22.133Z,31.40
2022-12-11T18:37:52.562Z,31.80
2022-12-11T18:40:21.573Z,31.70
2022-12-11T18:42:50.904Z,31.90
2022-12-11T18:45:21.126Z,31.80
2022-12-11T18:47:52.765Z,31.50
2022-12-11T18:50:21.614Z,30.70
2022-12-11T18:52:57.215Z,31.00
2022-12-11T18:55:26.363Z,31.10
2022-12-11T18:58:02.676Z,31.30
2022-12-11T19:00:32.372Z,31.60
2022-12-11T19:03:02.253Z,31.30
2022-12-11T19:05:31.786Z,31.30
2022-12-11T19:08:02.165Z,31.50
2022-12-11T19:10:31.405Z,31.30
2022-12-11T19:13:00.204Z,31.10
2022-12-11T19:15:29.186Z,30.90
2022-12-11T19:17:58.019Z,30.70
2022-12-11T19:20:48.142Z,30.60
2022-12-11T19:23:17.198Z,30.80
2022-12-11T19:25:48.633Z,31.10
2022-12-11T19:28:18.410Z,31.10
2022-12-11T19:30:52.308Z,31.00
2022-12-11T19:33:21.479Z,30.60
2022-12-11T19:35:50.440Z,30.50
2022-12-11T19:38:20.756Z,30.40
2022-12-11T19:40:49.624Z,30.00
2022-12-11T19:43:19.835Z,30.90
2022-12-11T19:45:51.284Z,30.50
2022-12-11T19:48:20.095Z,30.50
2022-12-11T19:50:48.879Z,30.10
2022-12-11T19:53:17.806Z,29.90
2022-12-11T19:55:53.049Z,30.10
2022-12-11T19:58:22.638Z,30.10
2022-12-11T20:00:51.745Z,30.20
2022-12-11T20:03:20.855Z,30.10
2022-12-11T20:05:50.251Z,30.30
2022-12-11T20:08:43.351Z,30.30
2022-12-11T20:11:17.588Z,29.70
2022-12-11T20:13:47.627Z,29.20
2022-12-11T20:16:28.856Z,29.40
2022-12-11T20:19:08.530Z,29.30
2022-12-11T20:21:37.333Z,29.20
2022-12-11T20:24:06.697Z,29.40
2022-12-11T20:26:38.345Z,29.40
2022-12-11T20:29:08.615Z,29.40
2022-12-11T20:31:38.837Z,29.10
2022-12-11T20:34:09.080Z,28.90
2022-12-11T20:36:37.782Z,28.90
2022-12-11T20:39:07.001Z,28.80
2022-12-11T20:41:37.290Z,28.80
2022-12-11T20:44:06.101Z,28.30
2022-12-11T20:46:35.105Z,28.80
2022-12-11T20:49:04.596Z,28.30
2022-12-11T20:51:33.363Z,28.40
2022-12-11T20:54:02.197Z,28.40
2022-12-11T20:56:34.176Z,28.10
2022-12-11T20:59:04.646Z,28.30
2022-12-11T21:01:35.122Z,28.60
2022-12-11T21:04:04.130Z,28.60
2022-12-11T21:06:35.105Z,28.60
2022-12-11T21:09:06.942Z,28.30
2022-12-11T21:11:36.003Z,28.40
2022-12-11T21:14:07.097Z,27.60
2022-12-11T21:16:37.908Z,27.50
2022-12-11T21:19:16.532Z,27.40
2022-12-11T21:21:47.068Z,27.50
2022-12-11T21:24:19.267Z,27.20
2022-12-11T21:26:51.500Z,27.50
2022-12-11T21:29:21.730Z,28.10
2022-12-11T21:31:51.497Z,28.60
2022-12-11T21:34:25.304Z,28.60
2022-12-11T21:36:57.845Z,29.20
2022-12-11T21:39:28.346Z,29.20
2022-12-11T21:41:58.241Z,29.60
2022-12-11T21:47:21.063Z,28.90
2022-12-11T21:49:50.123Z,28.90
2022-12-11T21:52:18.935Z,28.90
2022-12-11T21:54:47.763Z,28.90
2022-12-11T21:57:19.002Z,29.10
2022-12-11T21:59:53.052Z,28.80
2022-12-11T22:02:23.402Z,28.90
2022-12-11T22:04:52.187Z,29.40
2022-12-11T22:07:20.773Z,29.00
2022-12-11T22:09:49.501Z,29.30
2022-12-11T22:12:25.572Z,29.00
2022-12-11T22:14:56.131Z,29.00
2022-12-11T22:17:24.781Z,28.40
2022-12-11T22:20:02.349Z,28.60
2022-12-11T22:22:34.331Z,27.60
2022-12-11T22:25:07.236Z,27.00
2022-12-11T22:27:36.299Z,27.10
2022-12-11T22:30:07.904Z,26.90
2022-12-11T22:32:36.753Z,26.50
2022-12-11T22:35:06.325Z,25.60
2022-12-11T22:37:35.196Z,25.70
2022-12-11T22:40:03.939Z,25.90
2022-12-11T22:42:32.904Z,26.30
2022-12-11T22:45:10.049Z,25.50
2022-12-11T22:47:39.178Z,25.70
2022-12-11T22:50:09.031Z,25.80
2022-12-11T22:52:38.063Z,26.40
2022-12-11T22:55:08.389Z,25.90
2022-12-11T22:57:38.267Z,26.10
2022-12-11T23:00:12.212Z,26.20
2022-12-11T23:02:41.040Z,25.50
2022-12-11T23:05:12.602Z,25.70
2022-12-11T23:07:41.635Z,25.30
2022-12-11T23:10:13.265Z,25.40
2022-12-11T23:12:42.723Z,24.40
2022-12-11T23:15:21.426Z,25.00
2022-12-11T23:17:53.411Z,24.60
2022-12-11T23:20:22.212Z,25.00
2022-12-11T23:22:51.605Z,25.20
2022-12-11T23:25:20.733Z,25.50
2022-12-11T23:27:49.523Z,25.50
2022-12-11T23:30:19.689Z,25.70
2022-12-11T23:32:52.558Z,25.70
2022-12-11T23:35:22.480Z,25.90
2022-12-11T23:37:51.187Z,26.10
2022-12-11T23:40:22.453Z,26.30
2022-12-11T23:42:51.226Z,26.30
2022-12-11T23:45:22.137Z,26.40
2022-12-11T23:47:50.998Z,26.50
2022-12-11T23:50:20.536Z,26.80
2022-12-11T23:52:49.566Z,26.70
2022-12-11T23:55:18.383Z,26.70
2022-12-11T23:57:46.976Z,26.70
